Time;durP1;ratioP1;P1;durP2;ratioP2;P2;SDS_P1;SDS_P2;PMS_P1;PMS_P2;Temp;Humidity;BMP_temperature;BMP_pressure;BME280_temperature;BME280_humidity;BME280_pressure;Samples;Min_cycle;Max_cycle;Signal;HPM_P1;HPM_P2
2023/10/18 00:01:05;;;;;;;3.25;1.95;;;;;;;7.50;87.71;101420.34;4970756;28;100830;-29
2023/10/18 00:03:32;;;;;;;1.70;1.50;;;;;;;7.51;87.86;101413.97;4971091;28;96517;-30
2023/10/18 00:06:11;;;;;;;3.33;1.48;;;;;;;7.49;88.15;101422.16;4970966;28;96889;-28
2023/10/18 00:08:38;;;;;;;2.10;1.63;;;;;;;7.48;88.22;101415.00;4972165;28;99305;-28
2023/10/18 00:11:04;;;;;;;2.88;1.55;;;;;;;7.42;88.51;101415.25;4972094;28;97909;-28
2023/10/18 00:13:30;;;;;;;2.75;1.85;;;;;;;7.37;88.76;101410.03;4972332;28;96743;-29
2023/10/18 00:16:04;;;;;;;4.32;1.88;;;;;;;7.43;88.33;101408.91;4972772;28;96761;-28
2023/10/18 00:18:30;;;;;;;1.73;1.25;;;;;;;7.32;89.00;101393.19;4972145;28;97993;-28
2023/10/18 00:21:04;;;;;;;2.95;2.05;;;;;;;7.32;88.35;101400.38;4970615;28;100706;-29
2023/10/18 00:23:33;;;;;;;3.03;1.95;;;;;;;7.36;88.14;101404.69;4970344;28;97641;-27
2023/10/18 00:26:08;;;;;;;2.10;1.33;;;;;;;7.32;88.63;101409.34;4970577;28;97115;-28
2023/10/18 00:28:38;;;;;;;3.60;2.15;;;;;;;7.35;88.52;101403.81;4972381;28;97293;-28
2023/10/18 00:31:16;;;;;;;2.90;1.90;;;;;;;7.35;88.29;101405.66;4970645;28;101129;-28
2023/10/18 00:33:42;;;;;;;2.38;1.58;;;;;;;7.30;88.33;101389.66;4970779;28;96559;-28
2023/10/18 00:36:16;;;;;;;1.92;1.50;;;;;;;7.26;88.24;101388.00;4972252;28;96772;-28
2023/10/18 00:38:42;;;;;;;3.63;2.60;;;;;;;7.31;88.39;101399.47;4970491;28;101148;-29
2023/10/18 00:41:14;;;;;;;5.25;2.25;;;;;;;7.33;88.16;101399.44;4970854;28;100838;-30
2023/10/18 00:43:44;;;;;;;1.80;1.48;;;;;;;7.33;88.52;101399.44;4970388;28;96854;-28
2023/10/18 00:46:10;;;;;;;4.82;2.38;;;;;;;7.31;88.39;101391.41;4971311;28;96827;-28
2023/10/18 00:48:35;;;;;;;3.33;1.92;;;;;;;7.28;88.23;101391.53;4969767;28;101024;-29
2023/10/18 00:51:01;;;;;;;2.67;1.70;;;;;;;7.28;88.69;101396.91;4973964;28;97822;-27
2023/10/18 00:53:30;;;;;;;2.75;1.95;;;;;;;7.22;88.50;101379.19;4975117;28;96600;-28
2023/10/18 00:55:59;;;;;;;6.07;2.00;;;;;;;7.29;88.48;101390.56;4973855;28;96927;-28
2023/10/18 00:58:31;;;;;;;2.45;1.70;;;;;;;7.23;88.27;101377.38;4974827;28;98601;-28
2023/10/18 01:01:01;;;;;;;4.28;2.13;;;;;;;7.28;88.08;101387.97;4975099;28;97813;-28
2023/10/18 01:03:32;;;;;;;2.70;1.92;;;;;;;7.26;87.92;101379.06;4973452;28;96825;-28
2023/10/18 01:06:04;;;;;;;3.17;1.80;;;;;;;7.23;88.23;101377.38;4973994;28;97338;-28
2023/10/18 01:08:32;;;;;;;2.85;1.80;;;;;;;7.20;88.57;101383.75;4974831;28;97194;-28
2023/10/18 01:11:04;;;;;;;4.72;1.70;;;;;;;7.15;88.54;101369.59;4973362;28;100180;-29
2023/10/18 01:13:31;;;;;;;3.05;1.98;;;;;;;7.12;88.70;101368.81;4974627;28;96659;-29
2023/10/18 01:15:56;;;;;;;5.13;2.83;;;;;;;7.12;89.01;101368.81;4973169;28;97175;-28
2023/10/18 01:18:22;;;;;;;2.45;1.48;;;;;;;7.09;89.13;101361.72;4974572;28;98860;-29
2023/10/18 01:20:48;;;;;;;2.30;1.65;;;;;;;7.14;88.97;101359.72;4975048;28;97244;-28
2023/10/18 01:23:13;;;;;;;1.75;1.48;;;;;;;7.10;89.11;101355.38;4974737;28;96627;-28
2023/10/18 01:25:38;;;;;;;3.10;1.88;;;;;;;7.07;88.92;101347.44;4974843;28;96735;-29
2023/10/18 01:28:05;;;;;;;1.90;1.35;;;;;;;7.01;89.66;101340.50;4974445;28;99237;-28
2023/10/18 01:30:32;;;;;;;2.25;1.67;;;;;;;7.00;89.16;101337.84;4974900;28;97854;-28
2023/10/18 01:32:58;;;;;;;2.55;1.55;;;;;;;7.00;89.29;101335.16;4973241;28;96529;-28
2023/10/18 01:35:23;;;;;;;3.28;2.05;;;;;;;7.09;89.05;101348.25;4974777;28;96617;-28
2023/10/18 01:37:50;;;;;;;2.08;1.40;;;;;;;7.02;88.95;101336.84;4973556;28;99285;-28
2023/10/18 01:42:55;;;;;;;1.83;1.38;;;;;;;6.98;89.57;101318.16;4974198;28;96633;-28
2023/10/18 01:45:22;;;;;;;2.72;1.80;;;;;;;6.98;89.38;101316.38;4973837;28;96797;-28
2023/10/18 01:47:49;;;;;;;2.10;1.52;;;;;;;7.02;88.96;101323.38;4974202;28;99286;-28
2023/10/18 01:50:15;;;;;;;2.40;1.73;;;;;;;6.96;89.21;101312.88;4973941;28;97750;-28
2023/10/18 01:52:42;;;;;;;2.55;2.05;;;;;;;7.00;88.98;101313.59;4972894;28;96551;-28
2023/10/18 01:55:09;;;;;;;3.65;1.67;;;;;;;6.99;89.09;101303.78;4973170;28;96830;-28
2023/10/18 01:57:34;;;;;;;2.60;1.38;;;;;;;6.98;89.24;101289.44;4972506;28;100917;-29
2023/10/18 02:00:00;;;;;;;10.98;2.55;;;;;;;7.04;88.82;101284.75;4974019;28;97288;-28
2023/10/18 02:02:26;;;;;;;3.20;1.83;;;;;;;6.98;88.73;101286.75;4972634;28;96530;-28
2023/10/18 02:04:53;;;;;;;3.15;1.70;;;;;;;7.02;88.99;101300.97;4974167;28;96638;-29
2023/10/18 02:07:19;;;;;;;2.47;1.85;;;;;;;6.98;88.69;101286.75;4973920;28;97379;-29
2023/10/18 02:09:57;;;;;;;2.42;1.58;;;;;;;6.99;88.42;101299.28;4972408;28;100846;-28
2023/10/18 02:12:23;;;;;;;2.85;1.65;;;;;;;6.99;88.55;101287.63;4974223;28;96780;-29
2023/10/18 02:14:49;;;;;;;3.50;2.05;;;;;;;6.95;88.60;101285.97;4974153;28;96747;-29
2023/10/18 02:17:18;;;;;;;1.67;1.13;;;;;;;6.94;88.33;101277.03;4972238;28;100879;-28
2023/10/18 02:19:44;;;;;;;2.63;1.38;;;;;;;6.98;88.45;101275.97;4972770;28;100999;-29
2023/10/18 02:22:10;;;;;;;3.40;1.88;;;;;;;6.98;88.35;101272.38;4972470;28;96649;-28
2023/10/18 02:24:38;;;;;;;1.92;1.17;;;;;;;6.93;88.43;101267.19;4972350;28;96896;-27
2023/10/18 02:27:08;;;;;;;3.42;1.98;;;;;;;6.91;87.92;101262.78;4973164;28;97948;-28
2023/10/18 02:29:34;;;;;;;2.40;1.98;;;;;;;6.92;88.30;101275.34;4972159;28;100983;-28
2023/10/18 02:32:04;;;;;;;2.33;1.55;;;;;;;6.88;88.38;101268.31;4956118;28;96699;-28
2023/10/18 02:34:33;;;;;;;2.00;1.30;;;;;;;6.93;88.62;101274.38;4972320;28;96868;-28
2023/10/18 02:37:00;;;;;;;3.60;1.17;;;;;;;6.89;88.48;101278.13;4972059;28;101023;-28
2023/10/18 02:39:32;;;;;;;2.78;2.00;;;;;;;6.87;88.14;101274.66;4973206;28;99411;-28
2023/10/18 02:41:58;;;;;;;2.50;1.73;;;;;;;6.87;88.33;101261.19;4972141;28;96959;-29
2023/10/18 02:44:24;;;;;;;2.80;1.90;;;;;;;6.85;88.05;101254.97;4972133;28;96845;-29
2023/10/18 02:46:51;;;;;;;3.30;1.25;;;;;;;6.84;88.09;101261.28;4971395;28;101486;-27
2023/10/18 02:49:17;;;;;;;2.50;1.60;;;;;;;6.86;87.91;101257.59;4971759;28;100762;-28
2023/10/18 02:51:44;;;;;;;1.63;1.50;;;;;;;6.83;87.89;101246.94;4971143;28;97141;-29
2023/10/18 02:56:37;;;;;;;4.80;1.63;;;;;;;6.81;88.00;101236.22;4973210;28;97773;-28
2023/10/18 02:59:13;;;;;;;2.00;1.38;;;;;;;6.74;88.34;101226.63;4971689;28;100704;-28
2023/10/18 03:01:43;;;;;;;2.65;1.80;;;;;;;6.83;88.39;101238.00;4973315;28;96665;-28
2023/10/18 03:04:09;;;;;;;2.35;1.63;;;;;;;6.89;88.51;101232.34;4972959;28;96743;-29
2023/10/18 03:06:38;;;;;;;1.92;1.58;;;;;;;6.83;88.14;101224.53;4971528;28;100867;-29
2023/10/18 03:09:05;;;;;;;2.20;1.60;;;;;;;6.86;87.96;101229.78;4973410;28;97401;-28
2023/10/18 03:11:32;;;;;;;2.45;1.45;;;;;;;6.81;87.92;101214.69;4971683;28;96605;-28
2023/10/18 03:13:58;;;;;;;1.48;1.08;;;;;;;6.75;87.86;101211.41;4971456;28;96795;-28
2023/10/18 03:16:46;;;;;;;4.97;2.30;;;;;;;6.73;88.14;101219.53;4972286;28;99445;-29
2023/10/18 03:19:12;;;;;;;2.45;1.42;;;;;;;6.78;88.31;101220.22;4972981;28;97878;-28
2023/10/18 03:21:46;;;;;;;3.00;1.77;;;;;;;6.76;88.14;101202.38;4972936;28;96568;-28
2023/10/18 03:24:12;;;;;;;3.08;1.98;;;;;;;6.78;87.92;101197.81;4971650;28;96778;-28
2023/10/18 03:26:37;;;;;;;2.78;1.42;;;;;;;6.76;87.93;101195.16;4972688;28;99228;-28
2023/10/18 03:29:15;;;;;;;2.72;1.77;;;;;;;6.72;88.33;101189.97;4972790;28;97915;-29
2023/10/18 03:31:43;;;;;;;4.30;1.90;;;;;;;6.72;88.11;101192.66;4972960;28;96530;-28
2023/10/18 03:34:13;;;;;;;1.08;0.85;;;;;;;6.68;88.24;101181.13;4971790;28;96884;-30
2023/10/18 03:36:48;;;;;;;2.70;1.80;;;;;;;6.66;88.47;101177.63;4971103;28;100800;-28
2023/10/18 03:39:18;;;;;;;2.00;1.45;;;;;;;6.65;88.47;101177.69;4971237;28;99486;-28
2023/10/18 03:41:44;;;;;;;2.70;1.70;;;;;;;6.63;88.30;101171.50;4970423;28;97029;-29
2023/10/18 03:44:13;;;;;;;2.20;1.55;;;;;;;6.67;88.16;101174.00;4971133;28;97057;-28
2023/10/18 03:46:39;;;;;;;1.73;1.40;;;;;;;6.64;88.04;101165.19;4970475;28;98895;-28
2023/10/18 03:49:10;;;;;;;2.95;1.77;;;;;;;6.66;88.17;101161.47;4971093;28;100915;-28
2023/10/18 03:51:37;;;;;;;3.90;1.90;;;;;;;6.69;88.23;101163.16;4972376;28;96621;-29
2023/10/18 03:54:03;;;;;;;2.88;1.88;;;;;;;6.69;88.34;101155.97;4971073;28;96762;-28
2023/10/18 03:56:32;;;;;;;3.38;2.28;;;;;;;6.70;88.09;101162.25;4970934;28;100992;-28
2023/10/18 03:59:37;;;;;;;1.67;1.08;;;;;;;6.67;88.27;101154.28;4971093;28;100992;-29
2023/10/18 04:02:04;;;;;;;2.17;1.53;;;;;;;6.68;87.99;101154.22;4971881;28;96786;-28
2023/10/18 04:04:37;;;;;;;3.33;2.33;;;;;;;6.68;87.90;101147.97;4971130;28;96657;-28
2023/10/18 04:07:12;;;;;;;2.60;1.33;;;;;;;6.67;87.86;101155.16;4970548;28;100900;-29
2023/10/18 04:12:19;;;;;;;3.88;1.65;;;;;;;6.68;88.04;101162.31;4971492;28;96569;-30
2023/10/18 04:15:22;;;;;;;3.40;1.63;;;;;;;6.59;87.80;101128.53;4970795;28;96774;-28
2023/10/18 04:17:42;;;;;;;1.80;1.35;;;;;;;6.69;87.90;101138.94;4970417;28;97380;-29
2023/10/18 04:20:53;;;;;;;2.65;1.52;;;;;;;6.67;87.83;101144.38;4972019;28;99201;-28
2023/10/18 04:22:55;;;;;;;3.28;1.90;;;;;;;6.64;87.76;101140.94;4971051;28;96779;-27
2023/10/18 04:25:27;;;;;;;3.47;1.50;;;;;;;6.58;87.93;101131.31;4972410;28;97106;-28
2023/10/18 04:27:59;;;;;;;1.95;1.63;;;;;;;6.67;87.93;101135.44;4974244;28;100899;-28
2023/10/18 04:30:29;;;;;;;2.63;1.58;;;;;;;6.67;87.91;101130.06;4975328;28;99763;-28
2023/10/18 04:32:59;;;;;;;2.17;1.55;;;;;;;6.67;87.49;101114.75;4973670;28;98264;-28
2023/10/18 04:35:36;;;;;;;3.20;1.48;;;;;;;6.67;87.57;101108.50;4975419;28;96568;-29
2023/10/18 04:38:07;;;;;;;1.85;1.35;;;;;;;6.65;87.13;101108.59;4973810;28;100465;-29
2023/10/18 04:40:34;;;;;;;3.25;1.88;;;;;;;6.65;87.35;101113.97;4975368;28;99182;-28
2023/10/18 04:43:01;;;;;;;3.15;1.80;;;;;;;6.66;87.44;101106.78;4974309;28;96537;-28
2023/10/18 04:45:29;;;;;;;1.30;1.02;;;;;;;6.66;87.31;101109.47;4974963;28;96951;-27
2023/10/18 04:48:05;;;;;;;2.80;1.73;;;;;;;6.65;87.30;101096.94;4973837;28;101627;-28
2023/10/18 04:50:37;;;;;;;1.67;1.25;;;;;;;6.60;87.51;101086.34;4975544;28;96724;-28
2023/10/18 04:53:12;;;;;;;;;;;;;;;6.67;87.44;101098.63;4974436;28;96682;-28
2023/10/18 04:55:46;;;;;;;1.55;0.90;;;;;;;6.58;87.42;101085.56;4975268;28;96723;-28
2023/10/18 04:58:11;;;;;;;1.77;1.20;;;;;;;6.62;87.62;101087.16;4974685;28;97923;-27
2023/10/18 05:00:52;;;;;;;1.48;0.98;;;;;;;6.59;87.44;101079.22;4973694;28;99642;-28
2023/10/18 05:03:17;;;;;;;1.42;1.05;;;;;;;6.58;87.21;101072.97;4973743;28;96624;-28
2023/10/18 05:05:52;;;;;;;1.50;1.05;;;;;;;6.56;87.68;101064.09;4975025;28;96562;-29
2023/10/18 05:08:17;;;;;;;5.32;1.83;;;;;;;6.61;87.42;101060.34;4973652;28;101224;-27
2023/10/18 05:10:45;;;;;;;2.00;1.42;;;;;;;6.59;87.66;101057.69;4974761;28;99351;-28
2023/10/18 05:16:04;;;;;;;2.10;1.33;;;;;;;6.59;87.36;101044.25;4975572;28;96647;-29
2023/10/18 05:18:30;;;;;;;2.40;1.63;;;;;;;6.65;87.23;101052.06;4974447;28;99171;-28
2023/10/18 05:20:57;;;;;;;2.05;1.70;;;;;;;6.62;87.05;101037.84;4974675;28;98401;-27
2023/10/18 05:23:26;;;;;;;1.38;0.85;;;;;;;6.61;87.08;101031.59;4972940;28;97164;-28
2023/10/18 05:25:57;;;;;;;2.85;1.73;;;;;;;6.61;87.36;101041.50;4973342;28;96984;-28
2023/10/18 05:28:28;;;;;;;3.38;2.08;;;;;;;6.59;87.13;101045.13;4973299;28;100833;-28
2023/10/18 05:36:11;;;;;;;2.85;1.23;;;;;;;6.59;87.29;101026.28;4973861;28;97418;-28
2023/10/18 05:41:29;;;;;;;2.13;1.33;;;;;;;6.54;87.40;101014.84;4972905;28;97360;-29
2023/10/18 05:44:01;;;;;;;2.58;1.63;;;;;;;6.60;86.87;101032.53;4974180;28;97076;-28
2023/10/18 05:46:38;;;;;;;1.35;0.77;;;;;;;6.56;87.15;101018.34;4972945;28;97130;-28
2023/10/18 05:49:13;;;;;;;1.88;1.13;;;;;;;6.56;86.98;101014.78;4973742;28;99762;-30
2023/10/18 05:51:39;;;;;;;1.90;1.50;;;;;;;6.58;86.54;101021.84;4972640;28;99302;-28
2023/10/18 05:54:05;;;;;;;6.55;1.98;;;;;;;6.59;87.27;101015.50;4972861;28;96724;-28
2023/10/18 05:56:32;;;;;;;4.15;1.58;;;;;;;6.58;86.84;101004.84;4972932;28;96853;-28
2023/10/18 06:01:49;;;;;;;1.38;0.98;;;;;;;6.49;86.70;101013.28;4971753;28;97603;-28
2023/10/18 06:04:23;;;;;;;2.15;1.48;;;;;;;6.51;86.95;101016.78;4972873;28;96718;-31
2023/10/18 06:06:58;;;;;;;1.73;1.33;;;;;;;6.53;86.53;100996.06;4969408;28;97098;-29
2023/10/18 06:09:27;;;;;;;1.55;0.88;;;;;;;6.52;86.48;100991.63;4970264;28;101022;-28
2023/10/18 06:11:56;;;;;;;2.50;1.17;;;;;;;6.55;86.88;100991.47;4971875;28;100735;-28
2023/10/18 06:14:25;;;;;;;0.90;0.82;;;;;;;6.54;86.54;100989.75;4972041;28;97590;-28
2023/10/18 06:16:51;;;;;;;1.75;1.33;;;;;;;6.46;86.70;100975.72;4973871;28;96772;-29
2023/10/18 06:19:27;;;;;;;1.60;1.33;;;;;;;6.47;86.73;100981.06;4972296;28;101412;-29
2023/10/18 06:21:59;;;;;;;4.32;1.42;;;;;;;6.49;86.57;100979.19;4972426;28;97875;-29
2023/10/18 06:24:25;;;;;;;;;;;;;;;6.55;86.80;100981.63;4970716;28;96882;-28
2023/10/18 06:26:52;;;;;;;0.90;0.80;;;;;;;6.55;86.39;100981.63;4971883;28;97002;-28
2023/10/18 06:29:24;;;;;;;2.45;1.38;;;;;;;6.57;86.52;100977.03;4969962;28;100985;-28
2023/10/18 06:31:49;;;;;;;1.58;1.33;;;;;;;6.54;86.57;100970.91;4970174;28;100830;-32
2023/10/18 06:34:22;;;;;;;1.75;1.23;;;;;;;6.54;86.55;100963.69;4969915;28;97022;-28
2023/10/18 06:36:52;;;;;;;;;;;;;;;6.58;86.53;100956.38;4971135;28;97119;-28
2023/10/18 06:39:29;;;;;;;0.88;0.73;;;;;;;6.57;86.23;100936.66;4971569;28;100840;-28
2023/10/18 06:41:55;;;;;;;1.60;1.02;;;;;;;6.57;85.95;100951.94;4972133;28;101040;-27
2023/10/18 06:44:27;;;;;;;1.23;1.13;;;;;;;6.61;86.23;100948.16;4971900;28;96941;-28
2023/10/18 06:46:53;;;;;;;1.45;1.10;;;;;;;6.61;85.92;100955.38;4971771;28;96778;-28
2023/10/18 06:49:19;;;;;;;1.35;0.65;;;;;;;6.64;85.98;100949.84;4971400;28;100912;-28
2023/10/18 06:51:50;;;;;;;3.65;1.67;;;;;;;6.65;85.62;100949.78;4971630;28;100754;-28
2023/10/18 06:54:23;;;;;;;1.65;1.27;;;;;;;6.66;85.60;100950.66;4972160;28;96607;-28
2023/10/18 06:56:48;;;;;;;2.38;1.48;;;;;;;6.69;85.50;100943.31;4973591;28;96678;-28
2023/10/18 06:59:14;;;;;;;1.67;1.20;;;;;;;6.70;85.49;100936.16;4973148;28;97600;-28
2023/10/18 07:01:51;;;;;;;1.30;0.98;;;;;;;6.69;85.19;100932.53;4971705;28;99476;-27
2023/10/18 07:05:00;;;;;;;1.85;1.33;;;;;;;6.75;85.24;100940.38;4971458;28;97376;-28
2023/10/18 07:07:11;;;;;;;2.72;1.73;;;;;;;6.80;85.21;100940.16;4969484;28;96782;-28
2023/10/18 07:09:37;;;;;;;1.98;1.30;;;;;;;6.80;84.86;100924.00;4971757;28;100110;-28
2023/10/18 07:12:10;;;;;;;4.07;1.67;;;;;;;6.85;85.04;100918.44;4971490;28;100822;-28
2023/10/18 07:14:36;;;;;;;3.22;1.20;;;;;;;6.85;84.74;100931.88;4973022;28;96716;-28
2023/10/18 07:17:03;;;;;;;2.47;1.35;;;;;;;6.91;84.72;100920.81;4973112;28;96776;-29
2023/10/18 07:19:47;;;;;;;2.70;1.70;;;;;;;6.91;84.42;100934.28;4972841;28;97906;-28
2023/10/18 07:22:17;;;;;;;1.85;1.20;;;;;;;6.95;84.58;100931.38;4971948;28;101006;-28
2023/10/18 07:24:59;;;;;;;1.67;1.00;;;;;;;6.97;84.72;100923.25;4971465;28;96700;-28
2023/10/18 07:27:29;;;;;;;1.93;1.07;;;;;;;6.99;84.58;100916.84;4973253;28;96547;-28
2023/10/18 07:29:58;;;;;;;2.58;1.80;;;;;;;7.00;84.07;100906.94;4970890;28;101043;-28
2023/10/18 07:32:24;;;;;;;1.50;1.30;;;;;;;7.02;84.30;100908.63;4971164;28;101146;-28
2023/10/18 07:34:54;;;;;;;1.88;1.17;;;;;;;7.12;84.15;100916.28;4972801;28;96471;-29
2023/10/18 07:37:24;;;;;;;1.40;1.15;;;;;;;7.12;83.71;100917.16;4971507;28;96766;-28
2023/10/18 07:40:07;;;;;;;2.35;1.42;;;;;;;7.12;83.73;100913.59;4971109;28;100751;-28
2023/10/18 07:42:34;;;;;;;2.22;1.23;;;;;;;7.16;83.53;100910.69;4972854;28;97855;-28
2023/10/18 07:45:04;;;;;;;1.90;1.13;;;;;;;7.20;83.36;100906.91;4971089;28;96949;-28
2023/10/18 07:47:32;;;;;;;2.38;1.27;;;;;;;7.22;83.16;100907.72;4972644;28;96855;-28
2023/10/18 07:50:00;;;;;;;3.28;1.63;;;;;;;7.24;82.91;100891.47;4970940;28;101172;-28
2023/10/18 07:52:25;;;;;;;2.60;1.50;;;;;;;7.28;83.05;100892.19;4970996;28;100766;-28
2023/10/18 07:54:51;;;;;;;3.78;1.45;;;;;;;7.34;83.27;100881.13;4971971;28;96454;-28
2023/10/18 07:57:17;;;;;;;3.33;0.95;;;;;;;7.34;82.70;100876.63;4972246;28;96777;-28
2023/10/18 07:59:46;;;;;;;0.65;0.40;;;;;;;7.45;81.90;100886.88;4971356;28;97915;-28
2023/10/18 08:02:19;;;;;;;1.65;1.42;;;;;;;7.47;81.84;100884.13;4970519;28;101065;-28
2023/10/18 08:04:48;;;;;;;3.92;1.05;;;;;;;7.51;81.46;100878.50;4970949;28;96529;-29
2023/10/18 08:07:22;;;;;;;1.10;0.75;;;;;;;7.56;81.21;100870.19;4969736;28;96900;-29
2023/10/18 08:09:57;;;;;;;1.70;0.95;;;;;;;7.71;81.11;100873.97;4972376;28;97338;-29
2023/10/18 08:12:30;;;;;;;2.42;1.30;;;;;;;7.75;80.85;100852.16;4972484;28;99511;-27
2023/10/18 08:14:56;;;;;;;1.33;1.17;;;;;;;7.86;80.07;100866.00;4972646;28;96618;-30
2023/10/18 08:22:44;;;;;;;1.83;1.50;;;;;;;7.99;79.73;100857.28;4971378;28;97794;-34
2023/10/18 08:25:21;;;;;;;1.00;0.90;;;;;;;7.98;79.57;100847.41;4969859;28;97045;-30
2023/10/18 08:27:51;;;;;;;1.55;1.20;;;;;;;8.04;79.73;100852.53;4968429;28;97067;-33
2023/10/18 08:33:01;;;;;;;3.13;1.42;;;;;;;8.13;79.68;100845.75;4969995;28;97097;-29
2023/10/18 08:35:26;;;;;;;2.05;1.17;;;;;;;8.17;79.15;100840.13;4969651;28;97095;-29
2023/10/18 08:37:51;;;;;;;1.25;0.93;;;;;;;8.22;79.27;100839.88;4970272;28;97252;-29
2023/10/18 08:40:27;;;;;;;2.97;1.35;;;;;;;8.19;78.90;100829.25;4971962;28;98407;-28
2023/10/18 08:43:05;;;;;;;1.70;0.95;;;;;;;8.27;78.92;100835.13;4970516;28;101028;-28
2023/10/18 08:45:36;;;;;;;2.08;0.82;;;;;;;8.24;78.43;100819.09;4969220;28;97152;-30
2023/10/18 08:48:09;;;;;;;1.50;1.08;;;;;;;8.30;79.28;100810.69;4970382;28;97003;-30
2023/10/18 08:50:39;;;;;;;2.13;1.45;;;;;;;8.37;78.66;100817.50;4970233;28;100859;-28
2023/10/18 08:53:05;;;;;;;1.25;1.15;;;;;;;8.40;78.51;100811.97;4970394;28;101250;-27
2023/10/18 08:55:45;;;;;;;2.97;1.40;;;;;;;8.38;77.94;100812.97;4972092;28;96478;-28
2023/10/18 08:58:17;;;;;;;2.72;1.92;;;;;;;8.43;78.42;100805.53;4970956;28;96677;-29
2023/10/18 09:03:14;;;;;;;1.70;1.30;;;;;;;8.53;78.21;100797.81;4971881;28;97467;-30
2023/10/18 09:05:40;;;;;;;3.35;1.27;;;;;;;8.52;77.78;100796.09;4970629;28;96601;-28
2023/10/18 09:08:14;;;;;;;1.33;1.02;;;;;;;8.54;77.82;100794.19;4970259;28;96888;-30
2023/10/18 09:18:25;;;;;;;1.60;0.95;;;;;;;8.62;77.81;100776.59;4973810;28;96600;-29
2023/10/18 09:20:53;;;;;;;1.25;1.10;;;;;;;8.72;77.63;100776.97;4974622;28;99327;-28
2023/10/18 09:23:22;;;;;;;2.10;1.33;;;;;;;8.79;76.88;100774.78;4973280;28;100889;-28
2023/10/18 09:25:48;;;;;;;1.65;1.02;;;;;;;8.85;76.67;100769.94;4973440;28;96577;-29
2023/10/18 09:28:20;;;;;;;2.75;1.40;;;;;;;8.84;76.82;100746.59;4975026;28;96804;-28
2023/10/18 09:30:46;;;;;;;2.65;1.35;;;;;;;8.93;77.10;100746.06;4973370;28;100979;-29
2023/10/18 09:33:13;;;;;;;1.98;1.40;;;;;;;8.95;76.50;100734.31;4974651;28;97753;-28
2023/10/18 09:35:46;;;;;;;1.52;0.90;;;;;;;9.06;76.67;100742.69;4972820;28;97238;-28
2023/10/18 09:38:12;;;;;;;2.00;1.60;;;;;;;9.11;75.48;100718.97;4974570;28;96737;-28
2023/10/18 09:40:38;;;;;;;2.33;1.65;;;;;;;9.19;75.44;100707.69;4974707;28;97429;-28
2023/10/18 09:43:03;;;;;;;2.45;1.38;;;;;;;9.28;75.50;100707.16;4973025;28;101471;-27
2023/10/18 09:45:29;;;;;;;1.65;1.30;;;;;;;9.43;74.92;100711.66;4973751;28;96474;-29
2023/10/18 09:47:58;;;;;;;3.47;1.73;;;;;;;9.52;74.86;100699.44;4974631;28;96507;-28
2023/10/18 09:50:28;;;;;;;1.25;0.88;;;;;;;9.61;74.20;100692.63;4973434;28;99827;-28
2023/10/18 09:52:59;;;;;;;2.17;1.60;;;;;;;9.72;73.41;100703.66;4973914;28;99259;-28
2023/10/18 09:55:26;;;;;;;3.28;1.58;;;;;;;9.75;73.39;100682.72;4972802;28;97042;-28
2023/10/18 09:58:14;;;;;;;3.63;1.25;;;;;;;9.95;73.02;100700.41;4973966;28;96800;-28
2023/10/18 10:00:42;;;;;;;2.05;1.17;;;;;;;10.04;73.10;100677.34;4971754;28;99492;-30
2023/10/18 10:03:10;;;;;;;2.30;1.70;;;;;;;10.16;72.54;100673.00;4970558;28;100789;-29
2023/10/18 10:05:41;;;;;;;2.97;1.38;;;;;;;10.27;72.66;100672.31;4972755;28;96860;-30
2023/10/18 10:08:07;;;;;;;1.52;1.08;;;;;;;10.22;71.90;100667.19;4972237;28;96889;-32
2023/10/18 10:10:43;;;;;;;2.40;1.55;;;;;;;10.27;71.56;100664.19;4970153;28;101224;-29
2023/10/18 10:13:18;;;;;;;1.95;1.50;;;;;;;10.28;71.61;100657.81;4971411;28;99438;-29
2023/10/18 10:16:08;;;;;;;2.97;1.73;;;;;;;10.49;71.84;100663.75;4968711;28;97111;-36
2023/10/18 10:18:38;;;;;;;3.00;1.65;;;;;;;10.55;72.78;100653.34;4970024;28;97109;-31
2023/10/18 10:21:08;;;;;;;2.05;1.42;;;;;;;10.63;71.85;100656.47;4968267;28;100850;-35
2023/10/18 10:23:38;;;;;;;2.45;1.30;;;;;;;10.63;71.39;100645.63;4969484;28;99694;-27
2023/10/18 10:26:21;;;;;;;2.88;1.65;;;;;;;10.68;71.14;100637.19;4969430;28;97409;-28
2023/10/18 10:32:05;;;;;;;6.55;1.58;;;;;;;10.86;71.14;100640.53;4972468;28;97647;-28
2023/10/18 10:34:34;;;;;;;4.28;1.67;;;;;;;10.88;70.63;100619.63;4940082;28;101412;-27
2023/10/18 10:37:05;;;;;;;2.80;1.73;;;;;;;10.94;70.75;100632.78;4972122;28;96629;-28
2023/10/18 10:39:31;;;;;;;2.72;1.48;;;;;;;10.91;70.34;100623.97;4973512;28;96774;-28
2023/10/18 10:42:19;;;;;;;4.13;1.80;;;;;;;11.12;71.06;100613.53;4972047;28;100974;-28
2023/10/18 10:45:11;;;;;;;5.13;1.77;;;;;;;11.25;70.40;100596.31;4973630;28;97989;-28
2023/10/18 10:47:42;;;;;;;2.45;1.55;;;;;;;11.48;70.62;100599.28;4972108;28;96649;-30
2023/10/18 10:50:10;;;;;;;5.05;1.60;;;;;;;11.73;70.13;100586.69;4971802;28;96880;-30
2023/10/18 10:52:40;;;;;;;1.70;1.35;;;;;;;11.84;69.69;100597.66;4971419;28;99002;-30
2023/10/18 10:55:22;;;;;;;4.65;1.20;;;;;;;11.90;67.54;100583.72;4971581;28;101472;-30
2023/10/18 10:57:49;;;;;;;3.53;1.40;;;;;;;11.93;67.96;100577.19;4973184;28;96639;-30
2023/10/18 11:00:36;;;;;;;3.95;1.48;;;;;;;11.92;68.10;100565.47;4971965;28;98437;-32
2023/10/18 11:03:24;;;;;;;3.83;1.55;;;;;;;11.97;68.01;100570.56;4973280;28;98357;-30
2023/10/18 11:05:53;;;;;;;2.22;1.38;;;;;;;12.03;67.54;100557.41;4961949;28;100934;-30
2023/10/18 11:08:19;;;;;;;2.33;1.48;;;;;;;12.10;67.94;100550.53;4971998;28;96719;-30
2023/10/18 11:10:44;;;;;;;2.83;1.63;;;;;;;12.20;67.56;100552.59;4973403;28;96851;-30
2023/10/18 11:13:13;;;;;;;1.70;1.38;;;;;;;12.25;67.72;100531.38;4973063;28;98195;-30
2023/10/18 11:15:42;;;;;;;1.77;1.30;;;;;;;12.24;66.36;100525.09;4971438;28;101315;-31
2023/10/18 11:18:20;;;;;;;2.63;0.85;;;;;;;12.21;65.90;100521.75;4971061;28;97511;-32
2023/10/18 11:21:05;;;;;;;2.70;1.27;;;;;;;12.27;66.78;100508.56;4973198;28;96547;-30
2023/10/18 11:23:33;;;;;;;2.90;1.23;;;;;;;12.41;67.34;100506.69;4973024;28;98223;-29
2023/10/18 11:26:09;;;;;;;2.20;1.20;;;;;;;12.42;67.06;100500.25;4971477;28;101029;-30
2023/10/18 11:28:37;;;;;;;3.95;1.73;;;;;;;12.35;66.43;100485.41;4972883;28;96505;-31
2023/10/18 11:31:04;;;;;;;2.30;1.38;;;;;;;12.36;66.01;100470.84;4971551;28;97108;-30
2023/10/18 11:34:21;;;;;;;2.25;1.27;;;;;;;12.41;66.24;100485.81;4971112;28;101017;-30
2023/10/18 11:36:27;;;;;;;1.73;1.23;;;;;;;12.42;66.70;100467.66;4971947;28;97363;-30
2023/10/18 11:41:56;;;;;;;2.22;1.27;;;;;;;12.46;66.68;100461.03;4969880;28;96651;-29
2023/10/18 11:44:32;;;;;;;2.60;1.63;;;;;;;12.48;66.75;100449.06;4971098;28;99761;-30
2023/10/18 11:47:11;;;;;;;6.45;1.65;;;;;;;12.71;67.22;100450.03;4972313;28;97764;-31
2023/10/18 11:49:42;;;;;;;2.40;1.50;;;;;;;12.82;66.77;100460.06;4971173;28;96662;-30
2023/10/18 11:52:21;;;;;;;5.18;1.48;;;;;;;12.81;66.54;100446.59;4972471;28;96868;-30
2023/10/18 11:54:53;;;;;;;4.07;1.30;;;;;;;12.90;66.36;100448.59;4972460;28;98096;-32
2023/10/18 11:57:26;;;;;;;3.17;1.80;;;;;;;13.05;66.15;100455.56;4971167;28;98766;-30
2023/10/18 11:59:54;;;;;;;3.25;1.48;;;;;;;13.07;65.38;100447.28;4970987;28;96606;-30
2023/10/18 12:02:21;;;;;;;3.10;1.48;;;;;;;13.09;65.79;100440.75;4972870;28;96770;-31
2023/10/18 12:04:47;;;;;;;3.40;1.48;;;;;;;13.03;66.31;100438.50;4970930;28;101504;-32
2023/10/18 12:07:14;;;;;;;3.88;1.65;;;;;;;13.04;66.85;100418.47;4970813;28;100695;-31
2023/10/18 12:09:46;;;;;;;3.95;1.75;;;;;;;13.11;66.71;100416.16;4970319;28;97829;-30
2023/10/18 12:12:13;;;;;;;2.63;1.67;;;;;;;13.23;66.04;100414.28;4970285;28;97243;-30
2023/10/18 12:14:42;;;;;;;2.97;1.75;;;;;;;13.29;65.81;100411.97;4972075;28;99661;-32
2023/10/18 12:17:09;;;;;;;3.45;1.90;;;;;;;13.36;66.23;100404.19;4970490;28;101231;-35
2023/10/18 12:19:36;;;;;;;3.85;1.90;;;;;;;13.43;66.43;100407.28;4991842;28;96562;-30
2023/10/18 12:22:01;;;;;;;4.07;1.67;;;;;;;13.38;66.06;100405.81;4978105;28;96841;-33
2023/10/18 12:24:33;;;;;;;3.08;1.55;;;;;;;13.33;66.33;100385.41;4971021;28;99709;-30
2023/10/18 12:27:06;;;;;;;2.97;1.80;;;;;;;13.29;66.50;100362.16;4971173;28;101004;-30
2023/10/18 12:29:32;;;;;;;3.42;1.67;;;;;;;13.36;66.08;100374.28;4970892;28;96612;-30
2023/10/18 12:34:43;;;;;;;4.03;2.00;;;;;;;13.46;66.31;100363.50;4971953;28;97257;-30